NLK weather

Norfolk Island International Airport
Burnt Pine, Norfolk Island

Public forecast

Using degrees Celsius for public forecast. Weather courtesy of forecast.io.

Current aviation weather report (METAR) for Norfolk Island International Airport

Retrieved 2020/07/02 19:30 UTC (12 minutes ago):

YSNF 021930Z AUTO 09006KT 9999 // NCD 13/09 Q1024 RF000/0008

Aviation forecast (TAF) for Norfolk Island International Airport

Retrieved 2020/07/02 18:36 UTC (1 hour ago):

TAF YSNF 021730Z 0218/0318 12008KT 9999 -SHRA SCT030 INTER 0315/0318 4000 SHRA SCT015 BKN030